Time;durP1;ratioP1;P1;durP2;ratioP2;P2;SDS_P1;SDS_P2;PMS_P1;PMS_P2;Temp;Humidity;BMP_temperature;BMP_pressure;BME280_temperature;BME280_humidity;BME280_pressure;Samples;Min_cycle;Max_cycle;Signal;HPM_P1;HPM_P2
2024/01/16 00:02:20;;;;;;;11.87;6.90;;;-0.50;1.00;;;;;;5031187;28;20187;-53
2024/01/16 00:04:45;;;;;;;11.63;7.40;;;-0.60;99.90;;;;;;5030244;28;20649;-53
2024/01/16 00:07:11;;;;;;;19.87;7.67;;;-0.60;99.90;;;;;;5030548;28;20191;-53
2024/01/16 00:09:36;;;;;;;11.37;7.27;;;-0.60;1.00;;;;;;5031909;28;20243;-53
2024/01/16 00:12:03;;;;;;;13.40;7.93;;;-0.70;99.90;;;;;;5030885;28;20186;-53
2024/01/16 00:14:29;;;;;;;13.00;7.43;;;-0.80;1.00;;;;;;5031650;28;20260;-52
2024/01/16 00:16:55;;;;;;;17.13;7.23;;;-0.70;1.00;;;;;;5030958;28;20966;-53
2024/01/16 00:19:20;;;;;;;11.30;7.17;;;-0.70;99.90;;;;;;5034898;28;20437;-53
2024/01/16 00:21:46;;;;;;;8.73;6.97;;;-0.60;38.50;;;;;;5034147;28;20180;-53
2024/01/16 00:24:13;;;;;;;10.17;7.23;;;-0.60;99.90;;;;;;5034696;28;20233;-53
2024/01/16 00:26:38;;;;;;;16.40;7.27;;;-0.60;99.90;;;;;;5035115;28;20467;-53
2024/01/16 00:29:04;;;;;;;10.80;7.13;;;-0.70;99.90;;;;;;5035122;28;20422;-53
2024/01/16 00:31:30;;;;;;;12.57;7.13;;;-0.70;1.00;;;;;;5035185;28;20246;-53
2024/01/16 00:33:55;;;;;;;11.17;7.43;;;-0.80;99.90;;;;;;5033984;28;20207;-53
2024/01/16 00:36:21;;;;;;;10.70;7.20;;;-0.70;1.00;;;;;;5033470;28;20184;-52
2024/01/16 00:38:46;;;;;;;9.63;7.00;;;-0.70;1.00;;;;;;5034650;28;20310;-52
2024/01/16 00:41:14;;;;;;;11.13;7.90;;;-0.80;99.90;;;;;;5034627;28;20544;-53
2024/01/16 00:43:40;;;;;;;14.63;8.30;;;-0.80;1.00;;;;;;5035420;28;20175;-52
2024/01/16 00:46:06;;;;;;;12.47;8.10;;;-0.90;1.00;;;;;;5034535;28;20639;-53
2024/01/16 00:48:32;;;;;;;10.10;6.87;;;-0.80;1.00;;;;;;5033580;28;20468;-52
2024/01/16 00:50:57;;;;;;;12.80;7.43;;;-0.90;1.00;;;;;;5034363;28;20321;-53
2024/01/16 00:53:23;;;;;;;11.47;6.90;;;-0.90;99.90;;;;;;5034189;28;20184;-53
2024/01/16 00:55:48;;;;;;;11.07;6.70;;;-1.00;99.90;;;;;;5034289;28;20184;-54
2024/01/16 00:58:14;;;;;;;11.83;6.40;;;-1.00;1.00;;;;;;5033980;28;20212;-53
2024/01/16 01:00:39;;;;;;;13.70;6.10;;;-1.00;99.90;;;;;;5034235;28;20318;-54
2024/01/16 01:03:05;;;;;;;13.03;7.30;;;-1.10;99.90;;;;;;5034213;28;20218;-53
2024/01/16 01:05:30;;;;;;;16.70;7.30;;;-1.00;99.90;;;;;;5034772;28;20187;-53
2024/01/16 01:07:57;;;;;;;11.13;6.67;;;-1.00;99.90;;;;;;5033836;28;20322;-54
2024/01/16 01:10:23;;;;;;;9.90;6.50;;;-1.00;99.90;;;;;;5034057;28;20596;-53
2024/01/16 01:12:49;;;;;;;13.30;7.60;;;-1.00;99.90;;;;;;5034136;28;20539;-53
2024/01/16 01:15:15;;;;;;;13.07;7.33;;;-1.00;99.90;;;;;;5034208;28;20497;-53
2024/01/16 01:17:41;;;;;;;11.53;6.90;;;-1.00;1.00;;;;;;5033663;28;20560;-53
2024/01/16 01:20:08;;;;;;;11.30;6.90;;;-1.00;99.90;;;;;;5034712;28;20272;-53
2024/01/16 01:22:35;;;;;;;11.00;6.67;;;-1.00;99.90;;;;;;5032608;28;20409;-53
2024/01/16 01:25:00;;;;;;;11.90;6.83;;;-1.00;99.90;;;;;;5034411;28;20418;-54
2024/01/16 01:27:26;;;;;;;11.53;6.77;;;-1.00;99.90;;;;;;5033445;28;20838;-54
2024/01/16 01:29:51;;;;;;;11.00;6.47;;;-1.00;99.90;;;;;;5033012;28;20194;-54
2024/01/16 01:32:17;;;;;;;16.20;6.90;;;-1.00;99.90;;;;;;5034453;28;20179;-53
2024/01/16 01:34:43;;;;;;;11.43;6.60;;;-1.00;99.90;;;;;;5033299;28;20180;-53
2024/01/16 01:37:08;;;;;;;12.90;7.20;;;-1.00;99.90;;;;;;5033291;28;20207;-54
2024/01/16 01:39:34;;;;;;;10.07;6.53;;;-1.00;99.90;;;;;;5033528;28;20183;-54
2024/01/16 01:41:59;;;;;;;8.83;6.40;;;-1.00;99.90;;;;;;5033260;28;20190;-53
2024/01/16 01:44:25;;;;;;;18.17;7.23;;;-1.00;99.90;;;;;;5033391;28;20183;-53
2024/01/16 01:46:53;;;;;;;16.27;7.93;;;-0.90;99.90;;;;;;5033336;28;20793;-52
2024/01/16 01:49:19;;;;;;;12.43;7.07;;;-0.90;99.90;;;;;;5032539;28;20187;-53
2024/01/16 01:51:45;;;;;;;14.63;7.80;;;-0.90;99.90;;;;;;5034186;28;20410;-53
2024/01/16 01:54:12;;;;;;;15.23;7.97;;;-0.90;96.80;;;;;;5033040;28;20193;-53
2024/01/16 01:56:39;;;;;;;14.40;8.03;;;-0.90;99.90;;;;;;5033317;28;20425;-52
2024/01/16 01:59:06;;;;;;;13.13;7.40;;;-0.90;99.90;;;;;;5032720;28;20417;-52
2024/01/16 02:01:33;;;;;;;12.47;7.37;;;-0.90;1.00;;;;;;5032791;28;20421;-53
2024/01/16 02:04:01;;;;;;;11.10;7.40;;;-0.90;1.00;;;;;;5033232;28;20423;-52
2024/01/16 02:06:26;;;;;;;14.60;8.43;;;-0.90;1.00;;;;;;5032377;28;20414;-53
2024/01/16 02:08:53;;;;;;;12.80;8.60;;;-0.90;1.00;;;;;;5033109;28;20809;-52
2024/01/16 02:11:18;;;;;;;14.47;8.37;;;-0.90;1.00;;;;;;5033188;28;20179;-52
2024/01/16 02:13:44;;;;;;;14.20;8.20;;;-0.90;1.00;;;;;;5032704;28;20980;-52
2024/01/16 02:16:20;;;;;;;13.27;9.70;;;-1.00;1.00;;;;;;5032846;28;20205;-52
2024/01/16 02:18:46;;;;;;;13.23;8.10;;;-1.00;1.00;;;;;;5032502;28;20260;-52
2024/01/16 02:21:16;;;;;;;12.50;8.70;;;-1.00;1.00;;;;;;5033324;28;20422;-52
2024/01/16 02:23:42;;;;;;;14.77;8.50;;;-1.10;1.00;;;;;;5032576;28;20406;-51
2024/01/16 02:26:08;;;;;;;12.67;8.00;;;-1.10;1.00;;;;;;5031596;28;20557;-52
2024/01/16 02:28:33;;;;;;;14.20;8.50;;;-1.20;1.00;;;;;;5032572;28;20521;-52
2024/01/16 02:30:59;;;;;;;14.90;8.60;;;-1.20;1.00;;;;;;5032574;28;20425;-52
2024/01/16 02:33:24;;;;;;;13.20;8.30;;;-1.30;1.00;;;;;;5032906;28;20187;-52
2024/01/16 02:35:50;;;;;;;15.33;9.07;;;-1.30;19.40;;;;;;5032354;28;20179;-52
2024/01/16 02:38:15;;;;;;;15.57;9.90;;;-1.30;39.10;;;;;;5031879;28;20199;-52
2024/01/16 02:40:41;;;;;;;16.80;9.90;;;-1.20;99.90;;;;;;5030627;28;20187;-52
2024/01/16 02:43:07;;;;;;;19.27;10.33;;;-1.20;1.00;;;;;;5033090;28;20218;-53
2024/01/16 02:45:33;;;;;;;16.13;9.90;;;-1.20;1.00;;;;;;5032211;28;20207;-52
2024/01/16 02:47:59;;;;;;;19.33;10.73;;;-1.10;1.00;;;;;;5033304;28;20242;-53
2024/01/16 02:50:25;;;;;;;18.27;10.37;;;-1.10;1.00;;;;;;5030492;28;20897;-53
2024/01/16 02:52:50;;;;;;;17.97;10.50;;;-1.10;34.80;;;;;;5031972;28;20179;-52
2024/01/16 02:55:16;;;;;;;20.27;10.90;;;-1.20;80.10;;;;;;5032561;28;20294;-53
2024/01/16 02:57:42;;;;;;;20.60;11.77;;;-1.30;99.90;;;;;;5032619;28;20211;-53
2024/01/16 03:00:08;;;;;;;27.17;12.90;;;-1.30;99.90;;;;;;5032613;28;20206;-53
2024/01/16 03:02:34;;;;;;;23.97;13.30;;;-1.20;1.00;;;;;;5032096;28;20195;-53
2024/01/16 03:04:59;;;;;;;25.27;12.60;;;-1.20;1.00;;;;;;5030453;28;20497;-53
2024/01/16 03:07:25;;;;;;;22.17;12.33;;;-1.10;1.00;;;;;;5032636;28;20186;-53
2024/01/16 03:09:51;;;;;;;21.47;11.53;;;-1.20;1.00;;;;;;5031615;28;20239;-53
2024/01/16 03:12:17;;;;;;;21.80;11.70;;;-1.20;1.00;;;;;;5031652;28;20236;-53
2024/01/16 03:14:42;;;;;;;19.43;10.37;;;-1.20;1.00;;;;;;5032003;28;20317;-53
2024/01/16 03:17:08;;;;;;;19.20;10.37;;;-1.20;1.00;;;;;;5032507;28;20576;-53
2024/01/16 03:19:34;;;;;;;18.60;10.57;;;-1.20;1.00;;;;;;5030310;28;20202;-53
2024/01/16 03:21:59;;;;;;;19.00;9.73;;;-1.20;14.00;;;;;;5031806;28;20183;-52
2024/01/16 03:24:26;;;;;;;21.50;10.67;;;-1.20;1.00;;;;;;5031275;28;20183;-53
2024/01/16 03:26:51;;;;;;;18.67;10.10;;;-1.20;99.50;;;;;;5031322;28;20274;-53
2024/01/16 03:29:17;;;;;;;18.03;10.70;;;-1.30;99.90;;;;;;5031790;28;20560;-53
2024/01/16 03:31:42;;;;;;;20.33;11.50;;;-1.20;99.90;;;;;;5030763;28;20187;-53
2024/01/16 03:34:10;;;;;;;22.23;12.20;;;-1.20;99.90;;;;;;5031425;28;20191;-53
2024/01/16 03:36:36;;;;;;;25.53;13.03;;;-1.20;99.90;;;;;;5031768;28;20214;-53
2024/01/16 03:39:02;;;;;;;19.73;11.80;;;-1.10;99.90;;;;;;5031471;28;20938;-53
2024/01/16 03:41:27;;;;;;;25.33;12.80;;;-1.10;99.90;;;;;;5031670;28;20418;-53
2024/01/16 03:43:56;;;;;;;23.53;13.40;;;-1.10;99.90;;;;;;5030377;28;20432;-53
2024/01/16 03:46:22;;;;;;;22.33;13.67;;;-1.10;99.90;;;;;;5031171;28;20183;-52
2024/01/16 03:48:48;;;;;;;23.10;12.50;;;-1.10;99.90;;;;;;5032308;28;20421;-53
2024/01/16 03:51:17;;;;;;;23.30;12.63;;;-1.20;99.90;;;;;;5030298;28;20421;-52
2024/01/16 03:53:43;;;;;;;25.80;12.70;;;-1.10;99.90;;;;;;5031160;28;20203;-53
2024/01/16 03:56:08;;;;;;;24.10;12.90;;;-1.10;99.90;;;;;;5030622;28;20415;-53
2024/01/16 03:58:34;;;;;;;22.60;12.40;;;-1.10;99.90;;;;;;5031643;28;20260;-53
2024/01/16 04:01:00;;;;;;;21.60;12.03;;;-1.10;99.90;;;;;;5031679;28;20245;-53
2024/01/16 04:03:25;;;;;;;22.80;12.60;;;-1.20;99.90;;;;;;5029752;28;20555;-53
2024/01/16 04:05:51;;;;;;;25.80;14.27;;;-1.10;99.90;;;;;;5031553;28;20183;-53
2024/01/16 04:08:16;;;;;;;25.60;13.20;;;-1.20;96.70;;;;;;5030536;28;20235;-53
2024/01/16 04:10:42;;;;;;;23.57;13.63;;;-1.20;99.90;;;;;;5031162;28;20278;-53
2024/01/16 04:13:08;;;;;;;21.83;12.03;;;-1.20;99.90;;;;;;5031353;28;20181;-53
2024/01/16 04:15:33;;;;;;;25.70;13.47;;;-1.30;99.00;;;;;;5029579;28;20274;-52
2024/01/16 04:17:59;;;;;;;24.70;13.67;;;-1.30;99.90;;;;;;5031139;28;20214;-52
2024/01/16 04:20:25;;;;;;;21.80;12.37;;;-1.30;99.90;;;;;;5031046;28;20333;-53
2024/01/16 04:22:51;;;;;;;23.90;13.47;;;-1.30;99.90;;;;;;5031247;28;20863;-53
2024/01/16 04:25:16;;;;;;;24.90;13.30;;;-1.30;99.90;;;;;;5030642;28;20187;-53
2024/01/16 04:27:42;;;;;;;28.03;13.50;;;-1.40;99.90;;;;;;5030642;28;20180;-53
2024/01/16 04:30:09;;;;;;;22.73;12.50;;;-1.30;99.90;;;;;;5031213;28;20274;-53
2024/01/16 04:32:34;;;;;;;22.23;11.57;;;-1.30;99.90;;;;;;5030766;28;20184;-52
2024/01/16 04:35:00;;;;;;;23.47;12.17;;;-1.30;99.90;;;;;;5030183;28;20437;-53
2024/01/16 04:37:25;;;;;;;19.07;10.97;;;-1.30;99.90;;;;;;5030314;28;20196;-52
2024/01/16 04:39:51;;;;;;;22.10;11.70;;;-1.30;99.90;;;;;;5031382;28;20267;-53
2024/01/16 04:42:17;;;;;;;19.80;11.17;;;-1.30;99.90;;;;;;5030762;28;20194;-52
2024/01/16 04:44:43;;;;;;;16.87;8.70;;;-1.30;1.00;;;;;;5031271;28;20183;-53
2024/01/16 04:47:09;;;;;;;18.37;9.40;;;-1.20;1.00;;;;;;5029664;28;21005;-53
2024/01/16 04:49:34;;;;;;;17.73;9.53;;;-1.20;1.00;;;;;;5031306;28;20505;-52
2024/01/16 04:52:00;;;;;;;16.97;8.97;;;-1.30;1.00;;;;;;5030108;28;20599;-53
2024/01/16 04:54:25;;;;;;;21.80;8.70;;;-1.30;1.00;;;;;;5031386;28;20662;-52
2024/01/16 04:56:51;;;;;;;14.70;7.73;;;-1.30;1.00;;;;;;5030344;28;20651;-52
2024/01/16 04:59:16;;;;;;;16.67;8.90;;;-1.30;1.00;;;;;;5031656;28;20652;-53
2024/01/16 05:01:42;;;;;;;12.73;7.10;;;-1.30;1.00;;;;;;5029230;28;20238;-52
2024/01/16 05:04:10;;;;;;;14.07;7.97;;;-1.30;1.00;;;;;;5033551;28;20243;-53
2024/01/16 05:06:35;;;;;;;13.33;6.40;;;-1.40;1.00;;;;;;5034922;28;20287;-52
2024/01/16 05:09:02;;;;;;;14.63;6.70;;;-1.30;1.00;;;;;;5033624;28;20904;-53
2024/01/16 05:11:28;;;;;;;11.77;7.10;;;-1.30;1.00;;;;;;5034258;28;20647;-52
2024/01/16 05:13:57;;;;;;;17.57;7.97;;;-1.20;1.00;;;;;;5033944;28;20461;-52
2024/01/16 05:16:29;;;;;;;12.90;7.00;;;-1.20;1.00;;;;;;5034250;28;20183;-53
2024/01/16 05:18:54;;;;;;;11.10;6.30;;;-1.20;1.00;;;;;;5033490;28;20461;-53
2024/01/16 05:21:20;;;;;;;11.40;6.70;;;-1.20;1.00;;;;;;5034380;28;20424;-53
2024/01/16 05:23:46;;;;;;;12.47;6.00;;;-1.10;1.00;;;;;;5034147;28;20183;-53
2024/01/16 05:26:12;;;;;;;8.40;5.10;;;-1.10;1.00;;;;;;5033683;28;20183;-53
2024/01/16 05:28:39;;;;;;;10.93;5.50;;;-0.90;1.00;;;;;;5034130;28;20183;-53
2024/01/16 05:31:05;;;;;;;11.37;5.80;;;-0.90;1.00;;;;;;5033099;28;20223;-53
2024/01/16 05:33:32;;;;;;;11.60;6.00;;;-0.80;1.00;;;;;;5033471;28;20414;-53
2024/01/16 05:35:57;;;;;;;12.50;5.27;;;-0.80;1.00;;;;;;5033740;28;20476;-52
2024/01/16 05:38:23;;;;;;;8.17;4.70;;;-0.80;1.00;;;;;;5033036;28;20568;-53
2024/01/16 05:40:48;;;;;;;7.67;4.53;;;-0.80;1.00;;;;;;5034285;28;20175;-53
2024/01/16 05:43:14;;;;;;;11.77;4.87;;;-0.90;1.00;;;;;;5033296;28;20248;-53
2024/01/16 05:45:40;;;;;;;7.27;3.73;;;-0.80;1.00;;;;;;5033255;28;20227;-52
2024/01/16 05:48:07;;;;;;;7.90;3.93;;;-0.80;1.00;;;;;;5033453;28;20198;-53
2024/01/16 05:50:33;;;;;;;6.20;3.20;;;-0.80;1.00;;;;;;5032812;28;20179;-53
2024/01/16 05:52:59;;;;;;;5.50;3.87;;;-0.80;1.00;;;;;;5033665;28;20418;-53
2024/01/16 05:55:24;;;;;;;5.37;3.80;;;-0.80;1.00;;;;;;5033315;28;20492;-53
2024/01/16 05:57:50;;;;;;;8.37;3.47;;;-0.70;1.00;;;;;;5032734;28;20208;-53
2024/01/16 06:00:17;;;;;;;5.00;3.30;;;-0.70;1.00;;;;;;5032703;28;20183;-53
2024/01/16 06:02:43;;;;;;;7.37;2.73;;;-0.70;1.00;;;;;;5033851;28;20210;-53
2024/01/16 06:05:09;;;;;;;3.90;2.63;;;-0.70;1.00;;;;;;5033136;28;20501;-53
2024/01/16 06:07:35;;;;;;;5.07;2.90;;;-0.70;1.00;;;;;;5032171;28;20501;-52
2024/01/16 06:10:00;;;;;;;8.90;3.47;;;-0.70;1.00;;;;;;5032540;28;20290;-52
2024/01/16 06:12:26;;;;;;;5.80;3.00;;;-0.70;1.00;;;;;;5033976;28;20184;-51
2024/01/16 06:14:51;;;;;;;4.50;3.37;;;-0.70;1.00;;;;;;5030654;28;20191;-51
2024/01/16 06:17:17;;;;;;;3.97;2.57;;;-0.60;1.00;;;;;;5032161;28;20298;-51
2024/01/16 06:19:42;;;;;;;6.23;3.40;;;-0.70;1.00;;;;;;5033056;28;20198;-51
2024/01/16 06:22:08;;;;;;;7.00;2.90;;;-0.70;1.00;;;;;;5032953;28;20172;-52
2024/01/16 06:24:36;;;;;;;10.47;3.10;;;-0.60;1.00;;;;;;5032925;28;20713;-52
2024/01/16 06:27:06;;;;;;;6.57;4.53;;;-0.60;1.00;;;;;;5033139;28;20424;-52
2024/01/16 06:29:32;;;;;;;6.57;3.70;;;-0.60;1.00;;;;;;5031628;28;20938;-52
2024/01/16 06:31:57;;;;;;;5.60;3.00;;;-0.50;1.00;;;;;;5032408;28;20465;-52
2024/01/16 06:34:23;;;;;;;10.63;4.40;;;-0.50;1.00;;;;;;5032727;28;20197;-52
2024/01/16 06:36:48;;;;;;;10.67;4.60;;;-0.50;1.00;;;;;;5031923;28;20180;-55
2024/01/16 06:39:14;;;;;;;8.53;3.73;;;-0.50;1.00;;;;;;5032711;28;20191;-53
2024/01/16 06:41:43;;;;;;;9.10;4.17;;;-0.40;1.00;;;;;;5032650;28;20180;-53
2024/01/16 06:44:08;;;;;;;11.77;4.53;;;-0.40;1.00;;;;;;5031483;28;20187;-53
2024/01/16 06:46:34;;;;;;;7.80;3.97;;;-0.50;1.00;;;;;;5032352;28;20506;-52
2024/01/16 06:49:00;;;;;;;7.30;3.80;;;-0.40;1.00;;;;;;5032824;28;20223;-52
2024/01/16 06:51:26;;;;;;;16.10;4.70;;;-0.40;1.00;;;;;;5031953;28;20454;-53
2024/01/16 06:53:51;;;;;;;12.67;4.50;;;-0.40;1.00;;;;;;5031006;28;20210;-52
2024/01/16 06:56:17;;;;;;;10.33;4.00;;;-0.40;1.00;;;;;;5032273;28;20184;-52
2024/01/16 06:58:43;;;;;;;11.33;4.10;;;-0.40;1.00;;;;;;5032587;28;20235;-52
2024/01/16 07:01:09;;;;;;;8.67;3.93;;;-0.40;1.00;;;;;;5032367;28;20187;-52
2024/01/16 07:03:35;;;;;;;11.33;4.37;;;-0.40;1.00;;;;;;5031616;28;20822;-52
2024/01/16 07:06:00;;;;;;;9.07;4.30;;;-0.40;1.00;;;;;;5031130;28;20418;-52
2024/01/16 07:08:26;;;;;;;14.33;3.90;;;-0.40;1.00;;;;;;5031732;28;20234;-51
2024/01/16 07:10:52;;;;;;;11.63;3.97;;;-0.40;1.00;;;;;;5032011;28;20237;-51
2024/01/16 07:13:19;;;;;;;6.83;4.20;;;-0.40;1.00;;;;;;5031933;28;20414;-51
2024/01/16 07:15:44;;;;;;;14.80;4.20;;;-0.40;1.00;;;;;;5031436;28;20410;-51
2024/01/16 07:18:10;;;;;;;11.50;4.40;;;-0.40;1.00;;;;;;5032535;28;21026;-51
2024/01/16 07:20:35;;;;;;;11.90;4.20;;;-0.50;1.00;;;;;;5032310;28;20184;-51
2024/01/16 07:23:01;;;;;;;10.53;4.30;;;-0.50;1.00;;;;;;5031599;28;20214;-51
2024/01/16 07:25:27;;;;;;;7.80;4.23;;;-0.40;1.00;;;;;;5030935;28;20184;-51
2024/01/16 07:27:52;;;;;;;9.83;4.70;;;-0.40;1.00;;;;;;5030794;28;20257;-52
2024/01/16 07:30:18;;;;;;;10.40;4.83;;;-0.40;1.00;;;;;;5032051;28;20202;-52
2024/01/16 07:32:43;;;;;;;12.23;5.20;;;-0.40;1.00;;;;;;5031211;28;20175;-51
2024/01/16 07:35:09;;;;;;;8.47;4.70;;;-0.40;1.00;;;;;;5032213;28;20183;-51
2024/01/16 07:37:35;;;;;;;11.73;4.90;;;-0.30;1.00;;;;;;5031620;28;20889;-52
2024/01/16 07:40:00;;;;;;;8.33;4.50;;;-0.30;1.00;;;;;;5031760;28;20183;-52
2024/01/16 07:42:26;;;;;;;14.60;5.23;;;-0.30;1.00;;;;;;5030124;28;20178;-52
2024/01/16 07:44:52;;;;;;;8.87;4.37;;;-0.30;1.00;;;;;;5031811;28;20271;-52
2024/01/16 07:47:18;;;;;;;8.23;5.30;;;-0.30;1.00;;;;;;5031999;28;20191;-52
2024/01/16 07:49:43;;;;;;;10.17;5.23;;;-0.30;1.00;;;;;;5030142;28;20411;-52
2024/01/16 07:52:09;;;;;;;12.00;4.70;;;-0.30;1.00;;;;;;5031318;28;20268;-52
2024/01/16 07:54:35;;;;;;;12.10;6.03;;;-0.30;1.00;;;;;;5030730;28;20262;-52
2024/01/16 07:57:00;;;;;;;9.00;5.10;;;-0.30;1.00;;;;;;5031334;28;20187;-50
2024/01/16 07:59:26;;;;;;;13.67;5.50;;;-0.30;1.00;;;;;;5031304;28;20266;-52
2024/01/16 08:01:53;;;;;;;14.23;5.20;;;-0.20;1.00;;;;;;5030684;28;20624;-52
2024/01/16 08:04:19;;;;;;;11.53;5.03;;;-0.20;1.00;;;;;;5031439;28;20179;-52
2024/01/16 08:06:45;;;;;;;16.20;4.73;;;-0.20;1.00;;;;;;5031015;28;20984;-52
2024/01/16 08:09:12;;;;;;;11.90;4.93;;;-0.20;1.00;;;;;;5031724;28;20314;-52
2024/01/16 08:11:39;;;;;;;10.97;4.80;;;-0.20;1.00;;;;;;5031314;28;20428;-52
2024/01/16 08:14:05;;;;;;;10.70;5.07;;;-0.20;1.00;;;;;;5029698;28;20414;-52
2024/01/16 08:16:31;;;;;;;9.10;4.80;;;-0.10;1.00;;;;;;5031313;28;20461;-52
2024/01/16 08:18:56;;;;;;;13.90;4.93;;;-0.10;1.00;;;;;;5031724;28;20493;-52
2024/01/16 08:21:22;;;;;;;16.20;5.57;;;0.00;1.00;;;;;;5030376;28;20249;-52
2024/01/16 08:23:47;;;;;;;9.43;4.70;;;0.00;1.00;;;;;;5030775;28;20179;-52
2024/01/16 08:26:13;;;;;;;16.17;5.70;;;0.00;1.00;;;;;;5030697;28;20175;-52
2024/01/16 08:28:38;;;;;;;13.63;6.33;;;0.00;1.00;;;;;;5030100;28;20210;-52
2024/01/16 08:31:04;;;;;;;11.97;5.37;;;0.00;99.90;;;;;;5031466;28;20543;-52
2024/01/16 08:33:30;;;;;;;16.07;5.47;;;0.00;99.90;;;;;;5029947;28;20273;-52
2024/01/16 08:35:56;;;;;;;16.77;5.90;;;0.10;99.90;;;;;;5031057;28;20191;-53
2024/01/16 08:38:22;;;;;;;11.97;5.67;;;0.10;99.90;;;;;;5031872;28;20519;-53
2024/01/16 08:40:48;;;;;;;17.03;4.90;;;0.10;99.90;;;;;;5034188;28;20246;-53
2024/01/16 08:43:14;;;;;;;10.33;5.00;;;0.10;99.90;;;;;;5035166;28;20190;-53
2024/01/16 08:45:39;;;;;;;15.43;5.77;;;0.10;99.90;;;;;;5034256;28;20414;-53
2024/01/16 08:48:05;;;;;;;9.10;4.87;;;0.10;99.90;;;;;;5035105;28;20651;-53
2024/01/16 08:50:31;;;;;;;10.70;5.53;;;0.10;1.00;;;;;;5033040;28;20176;-52
2024/01/16 08:52:56;;;;;;;13.23;6.43;;;0.20;1.00;;;;;;5036706;28;20187;-52
2024/01/16 08:55:22;;;;;;;12.27;5.30;;;0.10;1.00;;;;;;5036975;28;20211;-51
2024/01/16 08:57:47;;;;;;;24.00;6.53;;;0.20;1.00;;;;;;5036679;28;20249;-52
2024/01/16 09:00:13;;;;;;;15.10;6.70;;;0.20;99.90;;;;;;5036801;28;20184;-51
2024/01/16 09:02:39;;;;;;;18.17;6.70;;;0.30;99.90;;;;;;5036813;28;20187;-52
2024/01/16 09:05:05;;;;;;;15.17;6.17;;;0.30;99.90;;;;;;5036689;28;20421;-52
2024/01/16 09:07:30;;;;;;;13.37;5.97;;;0.40;99.90;;;;;;5036722;28;20180;-52
2024/01/16 09:09:56;;;;;;;13.20;5.50;;;0.40;58.30;;;;;;5035941;28;20239;-52
2024/01/16 09:12:21;;;;;;;15.33;6.40;;;0.40;1.00;;;;;;5037005;28;20179;-53
2024/01/16 09:14:47;;;;;;;15.63;6.47;;;0.40;99.90;;;;;;5036570;28;20180;-52
2024/01/16 09:17:12;;;;;;;11.63;6.40;;;0.40;99.90;;;;;;5036396;28;20221;-53
2024/01/16 09:19:38;;;;;;;12.17;6.13;;;0.40;99.90;;;;;;5036685;28;20265;-53
2024/01/16 09:22:04;;;;;;;19.13;6.60;;;0.40;99.90;;;;;;5036651;28;20523;-53
2024/01/16 09:24:30;;;;;;;16.37;6.63;;;0.40;26.90;;;;;;5036371;28;20180;-53
2024/01/16 09:26:58;;;;;;;13.90;5.73;;;0.50;1.00;;;;;;5036024;28;20652;-52
2024/01/16 09:29:24;;;;;;;11.40;6.20;;;0.50;1.00;;;;;;5036323;28;20406;-52
2024/01/16 09:31:50;;;;;;;13.47;5.87;;;0.50;1.00;;;;;;5035898;28;20414;-51
2024/01/16 09:34:17;;;;;;;12.30;4.67;;;0.50;1.00;;;;;;5036025;28;20440;-51
2024/01/16 09:36:42;;;;;;;10.20;5.03;;;0.50;37.70;;;;;;5035838;28;20191;-51
2024/01/16 09:39:08;;;;;;;18.43;5.00;;;0.60;99.90;;;;;;5036058;28;20565;-51
2024/01/16 09:41:34;;;;;;;12.83;4.70;;;0.60;85.70;;;;;;5036334;28;20180;-51
2024/01/16 09:44:00;;;;;;;10.53;4.60;;;0.60;1.00;;;;;;5035942;28;20422;-51
2024/01/16 09:46:26;;;;;;;15.03;4.53;;;0.60;1.00;;;;;;5034986;28;20406;-51
2024/01/16 09:48:55;;;;;;;5.30;3.50;;;0.60;1.00;;;;;;5032239;28;20187;-51
2024/01/16 09:51:21;;;;;;;10.50;4.10;;;0.50;98.00;;;;;;5033275;28;20426;-51
2024/01/16 09:53:47;;;;;;;7.10;4.20;;;0.50;99.90;;;;;;5032904;28;20418;-51
2024/01/16 09:56:16;;;;;;;9.20;4.23;;;0.60;1.00;;;;;;5032399;28;20562;-51
2024/01/16 09:58:43;;;;;;;10.70;3.93;;;0.60;1.00;;;;;;5030761;28;20559;-52
2024/01/16 10:01:11;;;;;;;6.60;3.43;;;0.80;99.90;;;;;;5033555;28;20510;-52
2024/01/16 10:03:38;;;;;;;7.67;3.80;;;0.90;1.00;;;;;;5033876;28;20960;-52
2024/01/16 10:06:07;;;;;;;7.77;3.60;;;1.00;99.90;;;;;;5033603;28;20422;-52
2024/01/16 10:08:32;;;;;;;10.00;3.97;;;1.10;1.00;;;;;;5031076;28;20903;-52
2024/01/16 10:10:59;;;;;;;13.90;4.03;;;1.30;99.90;;;;;;5033237;28;20424;-53
2024/01/16 10:13:26;;;;;;;7.93;2.80;;;1.40;1.00;;;;;;5032738;28;20187;-53
2024/01/16 10:15:52;;;;;;;7.37;3.17;;;1.50;43.70;;;;;;5032285;28;20454;-52
2024/01/16 10:18:26;;;;;;;15.30;3.60;;;1.50;99.90;;;;;;5033306;28;20466;-53
2024/01/16 10:20:53;;;;;;;9.60;2.60;;;1.50;99.90;;;;;;5031580;28;20450;-52
2024/01/16 10:23:28;;;;;;;11.03;2.73;;;1.60;1.00;;;;;;5032278;28;20418;-53
2024/01/16 10:26:06;;;;;;;9.73;2.50;;;1.60;1.00;;;;;;5033019;28;20428;-53
2024/01/16 10:28:36;;;;;;;8.80;2.77;;;1.60;1.00;;;;;;5033193;28;20433;-52
2024/01/16 10:31:10;;;;;;;8.20;2.37;;;1.70;1.00;;;;;;5030581;28;20529;-53
2024/01/16 10:33:39;;;;;;;7.10;2.53;;;1.70;1.00;;;;;;5032675;28;20420;-53
2024/01/16 10:36:13;;;;;;;7.80;2.63;;;1.70;1.00;;;;;;5032961;28;20430;-53
2024/01/16 10:38:40;;;;;;;8.43;2.90;;;1.70;1.00;;;;;;5032363;28;20827;-53
2024/01/16 10:41:13;;;;;;;9.00;2.40;;;1.80;99.90;;;;;;5032685;28;20428;-53
2024/01/16 10:43:40;;;;;;;9.90;2.47;;;2.00;39.80;;;;;;5032442;28;20419;-53
2024/01/16 10:46:13;;;;;;;4.30;1.73;;;2.10;1.00;;;;;;5032462;28;20922;-53
2024/01/16 10:48:44;;;;;;;5.83;1.93;;;2.20;84.50;;;;;;5032782;28;21318;-53
2024/01/16 10:51:15;;;;;;;7.47;2.57;;;2.10;1.00;;;;;;5031382;28;20996;-53
2024/01/16 10:53:46;;;;;;;5.40;2.03;;;2.20;1.00;;;;;;5032713;28;20421;-52
2024/01/16 10:56:12;;;;;;;10.40;2.23;;;2.10;1.00;;;;;;5032079;28;20516;-52
2024/01/16 10:58:41;;;;;;;5.50;2.67;;;2.00;99.90;;;;;;5032032;28;20462;-52
2024/01/16 11:01:12;;;;;;;8.10;2.47;;;2.00;99.90;;;;;;5031303;28;20914;-52
2024/01/16 11:03:52;;;;;;;7.20;2.50;;;1.90;99.90;;;;;;5032963;28;20406;-52
2024/01/16 11:06:19;;;;;;;13.33;3.57;;;1.90;1.00;;;;;;5030851;28;20410;-52
2024/01/16 11:08:49;;;;;;;5.80;2.30;;;1.80;1.00;;;;;;5030990;28;20458;-52
2024/01/16 11:11:15;;;;;;;7.17;2.30;;;1.90;1.00;;;;;;5031688;28;20421;-52
2024/01/16 11:13:44;;;;;;;9.63;2.90;;;2.10;1.00;;;;;;5031789;28;20406;-52
2024/01/16 11:16:11;;;;;;;11.17;3.80;;;2.20;1.00;;;;;;5031475;28;20464;-52
2024/01/16 11:18:37;;;;;;;14.07;3.23;;;2.20;99.90;;;;;;5031593;28;20470;-52
2024/01/16 11:21:09;;;;;;;4.90;2.50;;;2.30;96.30;;;;;;5031535;28;20425;-52
2024/01/16 11:23:36;;;;;;;8.63;2.93;;;2.30;99.90;;;;;;5031852;28;20218;-52
2024/01/16 11:26:33;;;;;;;12.30;3.30;;;2.40;36.30;;;;;;5031850;28;20425;-52
2024/01/16 11:29:00;;;;;;;17.20;4.10;;;2.60;1.00;;;;;;5031081;28;20437;-52
2024/01/16 11:31:34;;;;;;;5.30;3.07;;;2.70;1.00;;;;;;5030625;28;20415;-52
2024/01/16 11:34:00;;;;;;;9.60;2.83;;;2.80;1.00;;;;;;5032095;28;20414;-52
2024/01/16 11:36:54;;;;;;;4.47;2.20;;;2.80;1.00;;;;;;5030359;28;20985;-52
2024/01/16 11:39:24;;;;;;;3.97;2.37;;;2.70;1.00;;;;;;5030425;28;20464;-52
2024/01/16 11:41:58;;;;;;;8.17;2.40;;;2.50;1.00;;;;;;5031667;28;20415;-52
2024/01/16 11:44:42;;;;;;;16.20;2.30;;;2.40;99.90;;;;;;5030629;28;20418;-52
2024/01/16 11:47:08;;;;;;;5.20;2.43;;;2.40;99.90;;;;;;5031657;28;20483;-52
2024/01/16 11:49:35;;;;;;;7.67;2.37;;;2.40;99.90;;;;;;5031131;28;20436;-52
2024/01/16 11:52:01;;;;;;;7.03;2.43;;;2.40;99.90;;;;;;5031306;28;20422;-52
2024/01/16 11:54:27;;;;;;;11.23;2.90;;;2.40;99.90;;;;;;5030718;28;20422;-52
2024/01/16 11:57:18;;;;;;;7.07;3.57;;;2.30;99.90;;;;;;5030912;28;20433;-52
2024/01/16 12:00:23;;;;;;;15.40;4.23;;;2.30;99.90;;;;;;5031654;28;20172;-52
2024/01/16 12:02:53;;;;;;;9.80;3.47;;;2.20;99.90;;;;;;5030778;28;20945;-53
2024/01/16 12:05:19;;;;;;;8.80;3.13;;;2.20;99.90;;;;;;5031126;28;20469;-52
2024/01/16 12:07:49;;;;;;;7.20;3.60;;;2.10;99.90;;;;;;5029154;28;20564;-53
2024/01/16 12:10:21;;;;;;;6.27;3.40;;;2.10;99.90;;;;;;5031544;28;20458;-53
2024/01/16 12:12:48;;;;;;;6.73;3.37;;;2.20;99.90;;;;;;5032757;28;20825;-52
2024/01/16 12:15:18;;;;;;;9.17;3.20;;;2.30;99.90;;;;;;5035784;28;20446;-52
2024/01/16 12:18:00;;;;;;;8.90;3.03;;;2.30;99.90;;;;;;5033434;28;20497;-52
2024/01/16 12:20:29;;;;;;;9.77;3.47;;;2.40;99.90;;;;;;5035764;28;20575;-53
2024/01/16 12:22:59;;;;;;;12.77;3.93;;;2.40;99.90;;;;;;5034346;28;20913;-53
2024/01/16 12:25:29;;;;;;;11.90;3.90;;;2.30;99.90;;;;;;5033561;28;20529;-52
2024/01/16 12:28:02;;;;;;;8.60;3.40;;;2.20;99.90;;;;;;5034976;28;20434;-53
2024/01/16 12:30:30;;;;;;;13.30;4.50;;;2.20;99.90;;;;;;5034661;28;20760;-53
2024/01/16 12:33:22;;;;;;;9.80;3.63;;;2.20;99.90;;;;;;5034547;28;20414;-53
2024/01/16 12:35:48;;;;;;;11.93;3.47;;;2.30;99.90;;;;;;5033753;28;20969;-52
2024/01/16 12:38:15;;;;;;;11.93;3.00;;;2.30;99.90;;;;;;5035065;28;20556;-52
2024/01/16 12:40:48;;;;;;;7.50;3.40;;;2.30;99.90;;;;;;5034382;28;20452;-52
2024/01/16 12:43:15;;;;;;;12.13;2.97;;;2.20;99.90;;;;;;5033673;28;20403;-53
2024/01/16 12:45:41;;;;;;;7.83;3.37;;;2.20;99.90;;;;;;5035375;28;20436;-53
2024/01/16 12:48:07;;;;;;;6.20;2.50;;;2.10;99.90;;;;;;5034986;28;20910;-53